• Join FlightAware (Why Join?)
  • Login
  • US Flag 
12:22AM EDT


 

Airport Tracker/Info


-or-


 

Live Flight TrackerFlight Track Log ✈ N340K ✈ 20-May-2013 ✈ KBVS - M94

Flight Track Log - Related Links

Times and Time Zones

All times are in EDT time to prevent confusion due to time zone crossing. See the N340K flight status page for this flight to view local times or setup timezone preferences in your user account.

Time Position Orientation Groundspeed Altitude Reporting Facility
EDT Latitude Longitude Course Direction KTS MPH feet Rate Location/Type
04:54PM 48.4100 -122.3964 142° Southeast 143 165 2,600  Level Seattle Center
04:55PM 48.3778 -122.3583 142° Southeast 139 160 3,600 900 Climbing Seattle Center
04:55PM 48.3722 -122.3511 139° Southeast 136 157 3,800 660 Climbing Seattle Center
04:56PM 48.3439 -122.3103 136° Southeast 144 166 4,500 780 Climbing Seattle Center
04:57PM 48.3183 -122.2689 133° Southeast 136 157 5,400 780 Climbing Seattle Center
04:58PM 48.2903 -122.2308 138° Southeast 139 160 6,100 780 Climbing Seattle Center
04:59PM 48.2586 -122.1869 137° Southeast 133 153 7,100 840 Climbing Seattle Center
05:00PM 48.2311 -122.1481 137° Southeast 136 157 7,900 780 Climbing Seattle Center
05:01PM 48.2031 -122.1092 137° Southeast 138 159 8,700 720 Climbing Seattle Center
05:02PM 48.1739 -122.0706 139° Southeast 141 162 9,400 600 Climbing Seattle Center
05:03PM 48.1442 -122.0300 138° Southeast 146 168 10,000 660 Climbing Seattle Center
05:04PM 48.1136 -121.9881 137° Southeast 150 173 10,800 720 Climbing Seattle Center
05:05PM 48.0839 -121.9467 137° Southeast 149 171 11,500 600 Climbing Seattle Center
05:06PM 48.0519 -121.9031 138° Southeast 156 180 12,100 780 Climbing Seattle Center
05:07PM 48.0147 -121.8494 136° Southeast 156 180 13,100 420 Climbing Seattle Center
05:08PM 47.9800 -121.7972 135° Southeast 178 205 13,000 -60 Descending Seattle Center
05:09PM 47.9433 -121.7442 136° Southeast 183 211 13,000  Level Seattle Center
05:10PM 47.9211 -121.6728 115° Southeast 192 221 13,000  Level Seattle Center
05:11PM 47.9031 -121.6003 110° East 190 219 13,000  Level Seattle Center
05:12PM 47.8825 -121.5283 113° Southeast 189 217 13,000  Level Seattle Center
05:13PM 47.8508 -121.4697 129° Southeast 186 214 13,000  Level Seattle Center
05:14PM 47.8067 -121.4147 140° Southeast 181 208 13,000  Level Seattle Center
05:15PM 47.7689 -121.3658 139° Southeast 181 208 13,000  Level Seattle Center
05:16PM 47.7336 -121.3150 136° Southeast 177 204 13,000  Level Seattle Center
05:17PM 47.6956 -121.2642 138° Southeast 182 209 13,000  Level Seattle Center
05:18PM 47.6564 -121.2108 137° Southeast 187 215 13,000  Level Seattle Center
05:19PM 47.6189 -121.1597 137° Southeast 185 213 13,000  Level Seattle Center
05:21PM 47.5819 -121.1072 136° Southeast 187 215 13,000  Level Seattle Center
05:22PM 47.5433 -121.0539 137° Southeast 191 220 13,000  Level Seattle Center
05:23PM 47.5058 -121.0053 139° Southeast 182 209 13,000  Level Seattle Center
05:24PM 47.4686 -120.9558 138° Southeast 182 209 13,000 -60 Level Seattle Center
05:25PM 47.4311 -120.9050 137° Southeast 184 212 12,900 -60 Descending Seattle Center
05:26PM 47.3850 -120.8439 138° Southeast 187 215 12,900 -120 Level Seattle Center
05:27PM 47.3489 -120.7953 138° Southeast 191 220 12,700 -300 Descending Seattle Center
05:28PM 47.3094 -120.7422 138° Southeast 192 221 12,300 -540 Descending Seattle Center
05:29PM 47.2656 -120.6847 138° Southeast 210 242 11,700 -900 Descending Seattle Center
05:30PM 47.2217 -120.6264 138° Southeast 217 250 10,500 -1,020 Descending Seattle Center
05:31PM 47.1786 -120.5692 138° Southeast 206 237 9,700 -840 Descending Seattle Center